createdAt,value
2022-10-02T09:52:09.251Z,17.90
2022-10-02T09:55:09.309Z,17.70
2022-10-02T09:58:06.107Z,17.60
2022-10-02T10:01:07.048Z,17.50
2022-10-02T10:04:16.574Z,17.40
2022-10-02T10:07:21.782Z,17.30
2022-10-02T10:10:26.349Z,17.40
2022-10-02T10:13:07.558Z,17.50
2022-10-02T10:16:10.617Z,17.50
2022-10-02T10:19:03.977Z,17.50
2022-10-02T10:21:42.826Z,17.50
2022-10-02T10:24:31.593Z,17.50
2022-10-02T10:27:33.614Z,17.60
2022-10-02T10:30:09.467Z,17.60
2022-10-02T10:33:10.673Z,17.60
2022-10-02T10:35:49.149Z,17.60
2022-10-02T10:38:37.601Z,17.50
2022-10-02T10:41:11.157Z,17.40
2022-10-02T10:43:47.726Z,17.30
2022-10-02T10:46:33.028Z,17.20
2022-10-02T10:49:18.598Z,17.10
2022-10-02T10:52:07.644Z,17.10
2022-10-02T10:54:51.223Z,17.10
2022-10-02T10:57:45.545Z,17.00
2022-10-02T11:00:26.753Z,17.10
2022-10-02T11:03:10.142Z,17.20
2022-10-02T11:05:55.359Z,17.10
2022-10-02T11:08:37.339Z,17.20
2022-10-02T11:11:24.120Z,17.20
2022-10-02T11:13:54.596Z,17.10
2022-10-02T11:16:46.774Z,17.00
2022-10-02T11:19:26.625Z,17.00
2022-10-02T11:22:08.545Z,17.00
2022-10-02T11:25:13.434Z,17.00
2022-10-02T11:28:18.927Z,17.10
2022-10-02T11:30:59.185Z,17.20
2022-10-02T11:33:44.359Z,17.40
2022-10-02T11:36:44.268Z,17.50
2022-10-02T11:39:24.621Z,17.30
2022-10-02T11:41:59.557Z,17.40
2022-10-02T11:44:48.277Z,17.40
2022-10-02T11:47:58.283Z,17.40
2022-10-02T11:50:56.010Z,17.40
2022-10-02T11:53:29.633Z,17.40
2022-10-02T11:56:23.872Z,17.50
2022-10-02T11:58:50.584Z,17.40
2022-10-02T12:01:25.123Z,17.40
2022-10-02T12:04:43.611Z,17.30
2022-10-02T12:11:53.241Z,17.00
2022-10-02T12:14:44.422Z,17.00
2022-10-02T12:17:40.330Z,16.90
2022-10-02T12:20:51.164Z,16.80
2022-10-02T12:23:51.642Z,16.70
2022-10-02T12:27:11.021Z,16.60
2022-10-02T12:29:41.190Z,16.40
2022-10-02T12:32:40.515Z,16.30
2022-10-02T12:35:19.329Z,16.30
2022-10-02T12:38:04.838Z,16.20
2022-10-02T12:40:52.791Z,16.10
2022-10-02T12:43:36.384Z,16.00
2022-10-02T12:46:15.125Z,15.80
2022-10-02T12:49:20.225Z,15.70
2022-10-02T12:52:05.859Z,15.50
2022-10-02T12:54:33.406Z,15.30
2022-10-02T12:57:40.195Z,15.20
2022-10-02T13:00:16.372Z,15.20
2022-10-02T13:03:05.388Z,15.10
2022-10-02T13:05:48.244Z,15.00
2022-10-02T13:08:41.542Z,14.90
2022-10-02T13:11:44.386Z,14.80
2022-10-02T13:14:36.501Z,14.70
2022-10-02T13:17:24.967Z,14.50
2022-10-02T13:20:28.896Z,14.40
2022-10-02T13:23:19.329Z,14.30
2022-10-02T13:26:05.170Z,14.30
2022-10-02T13:28:50.880Z,14.10
2022-10-02T13:31:48.807Z,14.10
2022-10-02T13:34:33.037Z,14.00
2022-10-02T13:37:11.851Z,14.00
2022-10-02T13:40:18.511Z,13.90
2022-10-02T13:43:11.695Z,14.00
2022-10-02T13:46:03.795Z,14.00
2022-10-02T13:48:48.674Z,13.90
2022-10-02T13:51:29.052Z,14.00
2022-10-02T13:54:19.102Z,14.00
2022-10-02T13:57:23.640Z,14.00
2022-10-02T14:00:14.501Z,14.00
2022-10-02T14:02:48.827Z,14.00
2022-10-02T14:05:57.769Z,14.00
2022-10-02T14:08:59.890Z,14.00
2022-10-02T14:11:48.112Z,14.00
2022-10-02T14:14:31.780Z,14.00
2022-10-02T14:17:13.916Z,14.00
2022-10-02T14:19:52.975Z,14.00
2022-10-02T14:22:41.816Z,13.90
2022-10-02T14:25:30.763Z,13.90
2022-10-02T14:28:44.952Z,13.80
2022-10-02T14:31:14.837Z,13.80
2022-10-02T14:34:10.926Z,13.80
2022-10-02T14:36:59.899Z,13.70
2022-10-02T14:39:35.802Z,13.70
2022-10-02T14:42:25.960Z,13.70
2022-10-02T14:45:07.781Z,13.80
2022-10-02T14:48:11.082Z,13.60
2022-10-02T14:50:41.047Z,13.60
2022-10-02T14:53:40.526Z,13.60
2022-10-02T14:56:31.832Z,13.60
2022-10-02T14:59:24.604Z,13.50
2022-10-02T15:02:09.119Z,13.50
2022-10-02T15:04:48.345Z,13.40
2022-10-02T15:07:16.555Z,13.40
2022-10-02T15:10:22.370Z,13.40
2022-10-02T15:13:10.154Z,13.40
2022-10-02T15:16:17.939Z,13.40
2022-10-02T15:19:14.184Z,13.30
2022-10-02T15:21:52.079Z,13.30
2022-10-02T15:24:46.779Z,13.20
2022-10-02T15:27:23.961Z,13.20
2022-10-02T15:29:57.715Z,13.20
2022-10-02T15:32:31.467Z,13.10
2022-10-02T15:35:19.782Z,13.10
2022-10-02T15:38:02.059Z,13.20
2022-10-02T15:40:58.044Z,13.10
2022-10-02T15:44:00.997Z,13.00
2022-10-02T15:46:32.682Z,13.00
2022-10-02T15:49:11.788Z,13.10
2022-10-02T15:51:56.863Z,13.00
2022-10-02T15:54:45.459Z,13.00
2022-10-02T15:57:35.358Z,12.90
2022-10-02T16:00:04.439Z,12.90
2022-10-02T16:02:31.879Z,12.90
2022-10-02T16:05:29.577Z,12.80
2022-10-02T16:07:56.455Z,12.80
2022-10-02T16:10:27.390Z,12.80
2022-10-02T16:13:26.483Z,12.80
2022-10-02T16:15:55.312Z,12.80
2022-10-02T16:18:48.467Z,12.70
2022-10-02T16:21:52.247Z,12.70
2022-10-02T16:24:52.604Z,12.70
2022-10-02T16:27:30.286Z,12.60
2022-10-02T16:30:15.972Z,12.60
2022-10-02T16:33:13.170Z,12.60
2022-10-02T16:35:48.901Z,12.60
2022-10-02T16:38:40.695Z,12.60
2022-10-02T16:41:34.198Z,12.60
2022-10-02T16:44:22.815Z,12.60
2022-10-02T16:47:00.427Z,12.50
2022-10-02T16:49:57.451Z,12.50
2022-10-02T16:52:32.177Z,12.50
2022-10-02T16:55:25.513Z,12.50
2022-10-02T16:57:54.894Z,12.50
2022-10-02T17:00:59.391Z,12.50
2022-10-02T17:03:45.627Z,12.60
2022-10-02T17:06:27.153Z,12.50
2022-10-02T17:09:32.104Z,12.60
2022-10-02T17:12:22.046Z,12.60
2022-10-02T17:15:33.780Z,12.50
2022-10-02T17:18:36.257Z,12.50
2022-10-02T17:21:41.619Z,12.50
2022-10-02T17:28:07.310Z,12.50
2022-10-02T17:30:55.855Z,12.50
2022-10-02T17:33:23.049Z,12.50
2022-10-02T17:36:07.541Z,12.50
2022-10-02T17:38:44.415Z,12.60
2022-10-02T17:41:53.141Z,12.60
2022-10-02T17:44:33.494Z,12.50
2022-10-02T17:47:44.962Z,12.60
2022-10-02T17:50:30.764Z,12.50
2022-10-02T17:53:25.847Z,12.60
2022-10-02T17:56:30.262Z,12.60
2022-10-02T17:59:34.921Z,12.60
2022-10-02T18:02:39.459Z,12.60
2022-10-02T18:05:37.883Z,12.50
2022-10-02T18:08:11.326Z,12.50
2022-10-02T18:10:47.566Z,12.50
2022-10-02T18:13:43.155Z,12.50
2022-10-02T18:16:25.267Z,12.60
2022-10-02T18:19:14.962Z,12.50
2022-10-02T18:21:57.038Z,12.50
2022-10-02T18:24:53.705Z,12.50
2022-10-02T18:27:26.960Z,12.50
2022-10-02T18:30:16.236Z,12.60
2022-10-02T18:33:14.565Z,12.60
2022-10-02T18:36:09.281Z,12.60
2022-10-02T18:38:58.488Z,12.60
2022-10-02T18:41:48.545Z,12.60
2022-10-02T18:44:21.616Z,12.70
2022-10-02T18:46:51.863Z,12.60
2022-10-02T18:49:47.054Z,12.60
2022-10-02T18:52:37.802Z,12.70
2022-10-02T18:55:25.640Z,12.70
2022-10-02T18:58:11.717Z,12.70
2022-10-02T19:01:13.448Z,12.70
2022-10-02T19:03:46.159Z,12.80
2022-10-02T19:06:53.731Z,12.80
2022-10-02T19:09:30.019Z,12.90
2022-10-02T19:12:05.248Z,12.90
2022-10-02T19:14:41.854Z,12.80
2022-10-02T19:17:27.628Z,12.80
2022-10-02T19:19:55.837Z,12.80
2022-10-02T19:22:25.769Z,12.80
2022-10-02T19:24:57.762Z,12.80
2022-10-02T19:27:32.303Z,12.70
2022-10-02T19:30:04.052Z,12.70
2022-10-02T19:32:41.362Z,12.70
2022-10-02T19:35:29.562Z,12.70
2022-10-02T19:38:09.502Z,12.70
2022-10-02T19:40:36.391Z,12.70
2022-10-02T19:43:15.888Z,12.70
2022-10-02T19:45:43.026Z,12.80
2022-10-02T19:48:10.789Z,12.80
2022-10-02T19:50:40.433Z,12.80
2022-10-02T19:53:24.558Z,12.90
2022-10-02T19:55:56.658Z,12.90
2022-10-02T19:58:33.996Z,12.90
2022-10-02T20:01:00.866Z,12.90
2022-10-02T20:03:28.178Z,13.00
2022-10-02T20:05:58.906Z,12.90
2022-10-02T20:08:31.024Z,12.90
2022-10-02T20:10:59.487Z,13.00
2022-10-02T20:13:36.914Z,12.90
2022-10-02T20:16:42.626Z,13.00
2022-10-02T20:19:26.073Z,12.90
2022-10-02T20:22:00.717Z,12.90
2022-10-02T20:24:34.919Z,12.80
2022-10-02T20:27:18.476Z,12.80
2022-10-02T20:29:47.297Z,12.80
2022-10-02T20:32:38.161Z,12.70
2022-10-02T20:35:15.215Z,12.70
